sensor_id;sensor_type;location;lat;lon;timestamp;P1;durP1;ratioP1;P2;durP2;ratioP2
34585;SDS011;20816;50.950;11.108;2023-11-19T00:00:29;0.10;;;0.10;;
34585;SDS011;20816;50.950;11.108;2023-11-19T00:02:56;0.00;;;0.00;;
34585;SDS011;20816;50.950;11.108;2023-11-19T00:05:22;0.20;;;0.20;;
34585;SDS011;20816;50.950;11.108;2023-11-19T00:07:49;0.10;;;0.10;;
34585;SDS011;20816;50.950;11.108;2023-11-19T00:10:16;0.10;;;0.10;;
34585;SDS011;20816;50.950;11.108;2023-11-19T00:12:48;0.40;;;0.20;;
34585;SDS011;20816;50.950;11.108;2023-11-19T00:15:16;0.10;;;0.10;;
34585;SDS011;20816;50.950;11.108;2023-11-19T00:17:45;0.10;;;0.10;;
34585;SDS011;20816;50.950;11.108;2023-11-19T00:20:15;0.10;;;0.10;;
34585;SDS011;20816;50.950;11.108;2023-11-19T00:22:42;0.10;;;0.10;;
34585;SDS011;20816;50.950;11.108;2023-11-19T00:25:12;0.10;;;0.10;;
34585;SDS011;20816;50.950;11.108;2023-11-19T00:27:39;0.10;;;0.10;;
34585;SDS011;20816;50.950;11.108;2023-11-19T00:30:06;0.10;;;0.10;;
34585;SDS011;20816;50.950;11.108;2023-11-19T00:32:34;0.20;;;0.10;;
34585;SDS011;20816;50.950;11.108;2023-11-19T00:35:02;0.10;;;0.10;;
34585;SDS011;20816;50.950;11.108;2023-11-19T00:37:29;0.10;;;0.10;;
34585;SDS011;20816;50.950;11.108;2023-11-19T00:39:56;0.10;;;0.10;;
34585;SDS011;20816;50.950;11.108;2023-11-19T00:42:22;0.10;;;0.10;;
34585;SDS011;20816;50.950;11.108;2023-11-19T00:44:50;0.00;;;0.00;;
34585;SDS011;20816;50.950;11.108;2023-11-19T00:47:17;0.10;;;0.10;;
34585;SDS011;20816;50.950;11.108;2023-11-19T00:49:47;0.10;;;0.10;;
34585;SDS011;20816;50.950;11.108;2023-11-19T00:52:17;0.50;;;0.50;;
34585;SDS011;20816;50.950;11.108;2023-11-19T00:54:45;0.30;;;0.30;;
34585;SDS011;20816;50.950;11.108;2023-11-19T00:57:11;0.10;;;0.10;;
34585;SDS011;20816;50.950;11.108;2023-11-19T00:59:40;0.17;;;0.10;;
34585;SDS011;20816;50.950;11.108;2023-11-19T01:02:08;0.10;;;0.10;;
34585;SDS011;20816;50.950;11.108;2023-11-19T01:04:35;0.00;;;0.00;;
34585;SDS011;20816;50.950;11.108;2023-11-19T01:07:02;0.10;;;0.10;;
34585;SDS011;20816;50.950;11.108;2023-11-19T01:09:33;0.37;;;0.23;;
34585;SDS011;20816;50.950;11.108;2023-11-19T01:12:01;0.00;;;0.00;;
34585;SDS011;20816;50.950;11.108;2023-11-19T01:14:29;0.10;;;0.10;;
34585;SDS011;20816;50.950;11.108;2023-11-19T01:16:57;0.23;;;0.17;;
34585;SDS011;20816;50.950;11.108;2023-11-19T01:19:24;0.30;;;0.30;;
34585;SDS011;20816;50.950;11.108;2023-11-19T01:21:51;0.20;;;0.20;;
34585;SDS011;20816;50.950;11.108;2023-11-19T01:24:18;0.10;;;0.10;;
34585;SDS011;20816;50.950;11.108;2023-11-19T01:26:45;0.20;;;0.20;;
34585;SDS011;20816;50.950;11.108;2023-11-19T01:29:13;0.00;;;0.00;;
34585;SDS011;20816;50.950;11.108;2023-11-19T01:31:40;0.20;;;0.20;;
34585;SDS011;20816;50.950;11.108;2023-11-19T01:34:08;0.10;;;0.10;;
34585;SDS011;20816;50.950;11.108;2023-11-19T01:36:35;0.10;;;0.10;;
34585;SDS011;20816;50.950;11.108;2023-11-19T01:39:02;0.17;;;0.17;;
34585;SDS011;20816;50.950;11.108;2023-11-19T01:41:36;0.43;;;0.20;;
34585;SDS011;20816;50.950;11.108;2023-11-19T01:44:05;0.37;;;0.23;;
34585;SDS011;20816;50.950;11.108;2023-11-19T01:46:32;0.33;;;0.27;;
34585;SDS011;20816;50.950;11.108;2023-11-19T01:49:02;0.10;;;0.10;;
34585;SDS011;20816;50.950;11.108;2023-11-19T01:51:29;0.10;;;0.10;;
34585;SDS011;20816;50.950;11.108;2023-11-19T01:53:57;0.10;;;0.10;;
34585;SDS011;20816;50.950;11.108;2023-11-19T01:56:24;0.30;;;0.10;;
34585;SDS011;20816;50.950;11.108;2023-11-19T01:58:53;0.90;;;0.60;;
34585;SDS011;20816;50.950;11.108;2023-11-19T02:01:22;0.10;;;0.10;;
34585;SDS011;20816;50.950;11.108;2023-11-19T02:03:49;0.10;;;0.10;;
34585;SDS011;20816;50.950;11.108;2023-11-19T02:06:18;0.10;;;0.10;;
34585;SDS011;20816;50.950;11.108;2023-11-19T02:08:45;0.10;;;0.10;;
34585;SDS011;20816;50.950;11.108;2023-11-19T02:11:12;0.03;;;0.03;;
34585;SDS011;20816;50.950;11.108;2023-11-19T02:13:38;0.10;;;0.10;;
34585;SDS011;20816;50.950;11.108;2023-11-19T02:16:08;0.10;;;0.10;;
34585;SDS011;20816;50.950;11.108;2023-11-19T02:18:37;0.50;;;0.10;;
34585;SDS011;20816;50.950;11.108;2023-11-19T02:21:04;0.00;;;0.00;;
34585;SDS011;20816;50.950;11.108;2023-11-19T02:23:31;0.10;;;0.10;;
34585;SDS011;20816;50.950;11.108;2023-11-19T02:26:02;0.10;;;0.10;;
34585;SDS011;20816;50.950;11.108;2023-11-19T02:28:43;0.07;;;0.07;;
34585;SDS011;20816;50.950;11.108;2023-11-19T02:31:10;0.00;;;0.00;;
34585;SDS011;20816;50.950;11.108;2023-11-19T02:33:38;0.00;;;0.00;;
34585;SDS011;20816;50.950;11.108;2023-11-19T02:36:06;0.00;;;0.00;;
34585;SDS011;20816;50.950;11.108;2023-11-19T02:38:34;0.00;;;0.00;;
34585;SDS011;20816;50.950;11.108;2023-11-19T02:41:06;0.10;;;0.10;;
34585;SDS011;20816;50.950;11.108;2023-11-19T02:43:33;0.30;;;0.30;;
34585;SDS011;20816;50.950;11.108;2023-11-19T02:46:01;2.77;;;0.20;;
34585;SDS011;20816;50.950;11.108;2023-11-19T02:48:37;0.00;;;0.00;;
34585;SDS011;20816;50.950;11.108;2023-11-19T02:51:04;0.10;;;0.10;;
34585;SDS011;20816;50.950;11.108;2023-11-19T02:53:36;0.10;;;0.10;;
34585;SDS011;20816;50.950;11.108;2023-11-19T02:56:04;0.10;;;0.10;;
34585;SDS011;20816;50.950;11.108;2023-11-19T02:59:06;0.10;;;0.10;;
34585;SDS011;20816;50.950;11.108;2023-11-19T03:01:41;0.10;;;0.10;;
34585;SDS011;20816;50.950;11.108;2023-11-19T03:04:10;0.10;;;0.10;;
34585;SDS011;20816;50.950;11.108;2023-11-19T03:06:39;0.00;;;0.00;;
34585;SDS011;20816;50.950;11.108;2023-11-19T03:09:05;0.10;;;0.10;;
34585;SDS011;20816;50.950;11.108;2023-11-19T03:11:37;0.00;;;0.00;;
34585;SDS011;20816;50.950;11.108;2023-11-19T03:14:04;0.00;;;0.00;;
34585;SDS011;20816;50.950;11.108;2023-11-19T03:16:31;0.03;;;0.03;;
34585;SDS011;20816;50.950;11.108;2023-11-19T03:18:58;0.00;;;0.00;;
34585;SDS011;20816;50.950;11.108;2023-11-19T03:21:29;0.10;;;0.10;;
34585;SDS011;20816;50.950;11.108;2023-11-19T03:23:58;1.43;;;0.10;;
34585;SDS011;20816;50.950;11.108;2023-11-19T03:26:27;0.00;;;0.00;;
34585;SDS011;20816;50.950;11.108;2023-11-19T03:28:54;0.00;;;0.00;;
34585;SDS011;20816;50.950;11.108;2023-11-19T03:31:21;0.20;;;0.20;;
34585;SDS011;20816;50.950;11.108;2023-11-19T03:33:47;0.10;;;0.10;;
34585;SDS011;20816;50.950;11.108;2023-11-19T03:36:14;5.53;;;0.20;;
34585;SDS011;20816;50.950;11.108;2023-11-19T03:38:40;0.00;;;0.00;;
34585;SDS011;20816;50.950;11.108;2023-11-19T03:41:12;0.00;;;0.00;;
34585;SDS011;20816;50.950;11.108;2023-11-19T03:43:39;0.00;;;0.00;;
34585;SDS011;20816;50.950;11.108;2023-11-19T03:46:19;0.20;;;0.10;;
34585;SDS011;20816;50.950;11.108;2023-11-19T03:48:47;0.10;;;0.10;;
34585;SDS011;20816;50.950;11.108;2023-11-19T03:51:15;0.30;;;0.30;;
34585;SDS011;20816;50.950;11.108;2023-11-19T03:53:46;0.00;;;0.00;;
34585;SDS011;20816;50.950;11.108;2023-11-19T03:56:13;0.10;;;0.10;;
34585;SDS011;20816;50.950;11.108;2023-11-19T03:59:04;0.00;;;0.00;;
34585;SDS011;20816;50.950;11.108;2023-11-19T04:01:55;0.00;;;0.00;;
34585;SDS011;20816;50.950;11.108;2023-11-19T04:04:46;0.00;;;0.00;;
34585;SDS011;20816;50.950;11.108;2023-11-19T04:07:14;0.10;;;0.10;;
34585;SDS011;20816;50.950;11.108;2023-11-19T04:10:05;0.10;;;0.10;;
34585;SDS011;20816;50.950;11.108;2023-11-19T04:12:34;0.00;;;0.00;;
34585;SDS011;20816;50.950;11.108;2023-11-19T04:15:02;0.00;;;0.00;;
34585;SDS011;20816;50.950;11.108;2023-11-19T04:17:52;0.10;;;0.10;;
34585;SDS011;20816;50.950;11.108;2023-11-19T04:20:42;0.00;;;0.00;;
34585;SDS011;20816;50.950;11.108;2023-11-19T04:23:32;0.00;;;0.00;;
34585;SDS011;20816;50.950;11.108;2023-11-19T04:26:02;0.00;;;0.00;;
34585;SDS011;20816;50.950;11.108;2023-11-19T04:28:33;0.10;;;0.10;;
34585;SDS011;20816;50.950;11.108;2023-11-19T04:31:00;0.10;;;0.10;;
34585;SDS011;20816;50.950;11.108;2023-11-19T04:33:26;0.10;;;0.03;;
34585;SDS011;20816;50.950;11.108;2023-11-19T04:35:53;0.10;;;0.10;;
34585;SDS011;20816;50.950;11.108;2023-11-19T04:38:20;0.10;;;0.10;;
34585;SDS011;20816;50.950;11.108;2023-11-19T04:40:46;0.07;;;0.07;;
34585;SDS011;20816;50.950;11.108;2023-11-19T04:43:13;0.10;;;0.10;;
34585;SDS011;20816;50.950;11.108;2023-11-19T04:45:42;0.10;;;0.10;;
34585;SDS011;20816;50.950;11.108;2023-11-19T04:48:08;0.07;;;0.07;;
34585;SDS011;20816;50.950;11.108;2023-11-19T04:50:35;0.10;;;0.10;;
34585;SDS011;20816;50.950;11.108;2023-11-19T04:53:02;0.10;;;0.10;;
34585;SDS011;20816;50.950;11.108;2023-11-19T04:55:29;3.93;;;0.37;;
34585;SDS011;20816;50.950;11.108;2023-11-19T04:57:56;0.00;;;0.00;;
34585;SDS011;20816;50.950;11.108;2023-11-19T05:00:23;0.10;;;0.10;;
34585;SDS011;20816;50.950;11.108;2023-11-19T05:02:49;1.20;;;0.20;;
34585;SDS011;20816;50.950;11.108;2023-11-19T05:05:16;0.63;;;0.10;;
34585;SDS011;20816;50.950;11.108;2023-11-19T05:07:44;0.00;;;0.00;;
34585;SDS011;20816;50.950;11.108;2023-11-19T05:10:10;0.10;;;0.10;;
34585;SDS011;20816;50.950;11.108;2023-11-19T05:12:37;0.03;;;0.03;;
34585;SDS011;20816;50.950;11.108;2023-11-19T05:15:05;0.10;;;0.07;;
34585;SDS011;20816;50.950;11.108;2023-11-19T05:17:32;0.00;;;0.00;;
34585;SDS011;20816;50.950;11.108;2023-11-19T05:20:00;0.10;;;0.10;;
34585;SDS011;20816;50.950;11.108;2023-11-19T05:22:26;0.20;;;0.10;;
34585;SDS011;20816;50.950;11.108;2023-11-19T05:24:53;0.10;;;0.10;;
34585;SDS011;20816;50.950;11.108;2023-11-19T05:27:21;0.17;;;0.17;;
34585;SDS011;20816;50.950;11.108;2023-11-19T05:29:48;0.20;;;0.10;;
34585;SDS011;20816;50.950;11.108;2023-11-19T05:32:15;0.13;;;0.10;;
34585;SDS011;20816;50.950;11.108;2023-11-19T05:34:42;0.10;;;0.10;;
34585;SDS011;20816;50.950;11.108;2023-11-19T05:37:11;0.10;;;0.10;;
34585;SDS011;20816;50.950;11.108;2023-11-19T05:39:38;0.20;;;0.20;;
34585;SDS011;20816;50.950;11.108;2023-11-19T05:42:05;0.10;;;0.10;;
34585;SDS011;20816;50.950;11.108;2023-11-19T05:44:32;0.20;;;0.10;;
34585;SDS011;20816;50.950;11.108;2023-11-19T05:46:59;0.00;;;0.00;;
34585;SDS011;20816;50.950;11.108;2023-11-19T05:49:25;0.00;;;0.00;;
34585;SDS011;20816;50.950;11.108;2023-11-19T05:51:52;0.20;;;0.20;;
34585;SDS011;20816;50.950;11.108;2023-11-19T05:54:22;0.10;;;0.10;;
34585;SDS011;20816;50.950;11.108;2023-11-19T05:56:48;0.10;;;0.10;;
34585;SDS011;20816;50.950;11.108;2023-11-19T05:59:15;0.10;;;0.10;;
34585;SDS011;20816;50.950;11.108;2023-11-19T06:01:44;0.20;;;0.20;;
34585;SDS011;20816;50.950;11.108;2023-11-19T06:04:11;0.10;;;0.10;;
34585;SDS011;20816;50.950;11.108;2023-11-19T06:06:37;0.10;;;0.10;;
34585;SDS011;20816;50.950;11.108;2023-11-19T06:09:05;1.13;;;0.43;;
34585;SDS011;20816;50.950;11.108;2023-11-19T06:11:35;0.00;;;0.00;;
34585;SDS011;20816;50.950;11.108;2023-11-19T06:14:02;0.10;;;0.10;;
34585;SDS011;20816;50.950;11.108;2023-11-19T06:16:31;0.10;;;0.10;;
34585;SDS011;20816;50.950;11.108;2023-11-19T06:18:58;0.10;;;0.10;;
34585;SDS011;20816;50.950;11.108;2023-11-19T06:21:25;0.10;;;0.10;;
34585;SDS011;20816;50.950;11.108;2023-11-19T06:23:52;0.10;;;0.10;;
34585;SDS011;20816;50.950;11.108;2023-11-19T06:26:20;0.70;;;0.20;;
34585;SDS011;20816;50.950;11.108;2023-11-19T06:28:48;0.20;;;0.10;;
34585;SDS011;20816;50.950;11.108;2023-11-19T06:31:15;0.00;;;0.00;;
34585;SDS011;20816;50.950;11.108;2023-11-19T06:33:42;3.83;;;0.10;;
34585;SDS011;20816;50.950;11.108;2023-11-19T06:36:09;0.10;;;0.10;;
34585;SDS011;20816;50.950;11.108;2023-11-19T06:38:36;0.10;;;0.10;;
34585;SDS011;20816;50.950;11.108;2023-11-19T06:41:06;0.20;;;0.20;;
34585;SDS011;20816;50.950;11.108;2023-11-19T06:43:34;0.20;;;0.20;;
34585;SDS011;20816;50.950;11.108;2023-11-19T06:46:04;0.50;;;0.50;;
34585;SDS011;20816;50.950;11.108;2023-11-19T06:48:32;0.40;;;0.20;;
34585;SDS011;20816;50.950;11.108;2023-11-19T06:50:59;0.20;;;0.20;;
34585;SDS011;20816;50.950;11.108;2023-11-19T06:53:26;0.10;;;0.10;;
34585;SDS011;20816;50.950;11.108;2023-11-19T06:55:54;0.10;;;0.10;;
34585;SDS011;20816;50.950;11.108;2023-11-19T06:58:21;0.30;;;0.30;;
34585;SDS011;20816;50.950;11.108;2023-11-19T07:00:48;0.20;;;0.20;;
34585;SDS011;20816;50.950;11.108;2023-11-19T07:03:16;0.20;;;0.10;;
34585;SDS011;20816;50.950;11.108;2023-11-19T07:05:43;0.23;;;0.20;;
34585;SDS011;20816;50.950;11.108;2023-11-19T07:08:10;1.70;;;0.20;;
34585;SDS011;20816;50.950;11.108;2023-11-19T07:10:37;0.20;;;0.20;;
34585;SDS011;20816;50.950;11.108;2023-11-19T07:13:04;0.40;;;0.20;;
34585;SDS011;20816;50.950;11.108;2023-11-19T07:15:32;0.33;;;0.33;;
34585;SDS011;20816;50.950;11.108;2023-11-19T07:17:59;0.47;;;0.47;;
34585;SDS011;20816;50.950;11.108;2023-11-19T07:20:28;0.30;;;0.13;;
34585;SDS011;20816;50.950;11.108;2023-11-19T07:22:55;0.20;;;0.20;;
34585;SDS011;20816;50.950;11.108;2023-11-19T07:25:24;0.83;;;0.40;;
34585;SDS011;20816;50.950;11.108;2023-11-19T07:27:51;2.40;;;1.03;;
34585;SDS011;20816;50.950;11.108;2023-11-19T07:30:19;0.17;;;0.17;;
34585;SDS011;20816;50.950;11.108;2023-11-19T07:32:45;0.20;;;0.13;;
34585;SDS011;20816;50.950;11.108;2023-11-19T07:35:12;0.37;;;0.20;;
34585;SDS011;20816;50.950;11.108;2023-11-19T07:37:39;0.47;;;0.40;;
34585;SDS011;20816;50.950;11.108;2023-11-19T07:40:06;1.43;;;0.30;;
34585;SDS011;20816;50.950;11.108;2023-11-19T07:42:33;0.20;;;0.10;;
34585;SDS011;20816;50.950;11.108;2023-11-19T07:44:59;0.60;;;0.30;;
34585;SDS011;20816;50.950;11.108;2023-11-19T07:47:26;0.37;;;0.37;;
34585;SDS011;20816;50.950;11.108;2023-11-19T07:49:55;0.70;;;0.70;;
34585;SDS011;20816;50.950;11.108;2023-11-19T07:52:22;0.33;;;0.13;;
34585;SDS011;20816;50.950;11.108;2023-11-19T07:54:48;0.10;;;0.10;;
34585;SDS011;20816;50.950;11.108;2023-11-19T07:57:15;0.23;;;0.20;;
34585;SDS011;20816;50.950;11.108;2023-11-19T07:59:42;2.53;;;0.63;;
34585;SDS011;20816;50.950;11.108;2023-11-19T08:02:09;2.97;;;1.00;;
34585;SDS011;20816;50.950;11.108;2023-11-19T08:04:35;2.07;;;0.47;;
34585;SDS011;20816;50.950;11.108;2023-11-19T08:07:03;0.47;;;0.40;;
34585;SDS011;20816;50.950;11.108;2023-11-19T08:09:29;0.80;;;0.50;;
34585;SDS011;20816;50.950;11.108;2023-11-19T08:11:57;0.70;;;0.70;;
34585;SDS011;20816;50.950;11.108;2023-11-19T08:14:23;1.57;;;0.40;;
34585;SDS011;20816;50.950;11.108;2023-11-19T08:16:50;0.70;;;0.33;;
34585;SDS011;20816;50.950;11.108;2023-11-19T08:19:17;0.40;;;0.30;;
34585;SDS011;20816;50.950;11.108;2023-11-19T08:21:44;1.50;;;0.20;;
34585;SDS011;20816;50.950;11.108;2023-11-19T08:24:11;1.07;;;0.40;;
34585;SDS011;20816;50.950;11.108;2023-11-19T08:26:37;0.80;;;0.60;;
34585;SDS011;20816;50.950;11.108;2023-11-19T08:29:05;0.20;;;0.20;;
34585;SDS011;20816;50.950;11.108;2023-11-19T08:31:32;0.33;;;0.23;;
34585;SDS011;20816;50.950;11.108;2023-11-19T08:33:58;0.20;;;0.20;;
34585;SDS011;20816;50.950;11.108;2023-11-19T08:36:25;0.40;;;0.40;;
34585;SDS011;20816;50.950;11.108;2023-11-19T08:38:52;0.87;;;0.30;;
34585;SDS011;20816;50.950;11.108;2023-11-19T08:41:18;0.60;;;0.30;;
34585;SDS011;20816;50.950;11.108;2023-11-19T08:43:45;0.90;;;0.67;;
34585;SDS011;20816;50.950;11.108;2023-11-19T08:46:12;6.23;;;0.83;;
34585;SDS011;20816;50.950;11.108;2023-11-19T08:48:40;2.17;;;0.50;;
34585;SDS011;20816;50.950;11.108;2023-11-19T08:51:07;0.67;;;0.23;;
34585;SDS011;20816;50.950;11.108;2023-11-19T08:53:33;0.53;;;0.33;;
34585;SDS011;20816;50.950;11.108;2023-11-19T08:56:00;0.43;;;0.40;;
34585;SDS011;20816;50.950;11.108;2023-11-19T08:58:29;5.10;;;0.43;;
34585;SDS011;20816;50.950;11.108;2023-11-19T09:00:57;0.70;;;0.70;;
34585;SDS011;20816;50.950;11.108;2023-11-19T09:03:24;1.80;;;1.43;;
34585;SDS011;20816;50.950;11.108;2023-11-19T09:05:53;1.13;;;0.73;;
34585;SDS011;20816;50.950;11.108;2023-11-19T09:08:20;3.70;;;0.97;;
34585;SDS011;20816;50.950;11.108;2023-11-19T09:10:46;0.93;;;0.93;;
34585;SDS011;20816;50.950;11.108;2023-11-19T09:13:13;3.87;;;0.60;;
34585;SDS011;20816;50.950;11.108;2023-11-19T09:15:40;0.87;;;0.50;;
34585;SDS011;20816;50.950;11.108;2023-11-19T09:18:06;2.93;;;1.07;;
34585;SDS011;20816;50.950;11.108;2023-11-19T09:20:33;1.70;;;0.90;;
34585;SDS011;20816;50.950;11.108;2023-11-19T09:23:05;2.00;;;0.57;;
34585;SDS011;20816;50.950;11.108;2023-11-19T09:25:32;4.97;;;1.23;;
34585;SDS011;20816;50.950;11.108;2023-11-19T09:28:02;2.40;;;0.60;;
34585;SDS011;20816;50.950;11.108;2023-11-19T09:30:29;2.57;;;1.67;;
34585;SDS011;20816;50.950;11.108;2023-11-19T09:32:55;3.13;;;0.80;;
34585;SDS011;20816;50.950;11.108;2023-11-19T09:35:22;5.05;;;1.40;;
34585;SDS011;20816;50.950;11.108;2023-11-19T09:37:49;0.70;;;0.60;;
34585;SDS011;20816;50.950;11.108;2023-11-19T09:40:15;4.20;;;1.10;;
34585;SDS011;20816;50.950;11.108;2023-11-19T09:42:44;4.40;;;1.00;;
34585;SDS011;20816;50.950;11.108;2023-11-19T09:45:15;3.13;;;1.33;;
34585;SDS011;20816;50.950;11.108;2023-11-19T09:47:46;2.73;;;0.73;;
34585;SDS011;20816;50.950;11.108;2023-11-19T09:50:15;2.97;;;0.85;;
34585;SDS011;20816;50.950;11.108;2023-11-19T09:52:45;3.60;;;1.43;;
34585;SDS011;20816;50.950;11.108;2023-11-19T09:55:13;4.73;;;0.97;;
34585;SDS011;20816;50.950;11.108;2023-11-19T09:57:40;2.70;;;1.10;;
34585;SDS011;20816;50.950;11.108;2023-11-19T10:00:08;3.90;;;0.90;;
34585;SDS011;20816;50.950;11.108;2023-11-19T10:02:37;8.10;;;1.07;;
34585;SDS011;20816;50.950;11.108;2023-11-19T10:05:06;2.30;;;0.97;;
34585;SDS011;20816;50.950;11.108;2023-11-19T10:07:34;8.83;;;1.23;;
34585;SDS011;20816;50.950;11.108;2023-11-19T10:10:01;3.07;;;1.23;;
34585;SDS011;20816;50.950;11.108;2023-11-19T10:12:30;6.63;;;1.40;;
34585;SDS011;20816;50.950;11.108;2023-11-19T10:14:57;5.40;;;1.47;;
34585;SDS011;20816;50.950;11.108;2023-11-19T10:17:28;6.90;;;2.67;;
34585;SDS011;20816;50.950;11.108;2023-11-19T10:19:58;4.20;;;1.60;;
34585;SDS011;20816;50.950;11.108;2023-11-19T10:22:25;1.67;;;0.60;;
34585;SDS011;20816;50.950;11.108;2023-11-19T10:24:54;5.60;;;1.13;;
34585;SDS011;20816;50.950;11.108;2023-11-19T10:27:23;2.93;;;1.33;;
34585;SDS011;20816;50.950;11.108;2023-11-19T10:29:52;2.00;;;0.73;;
34585;SDS011;20816;50.950;11.108;2023-11-19T10:32:19;5.67;;;1.23;;
34585;SDS011;20816;50.950;11.108;2023-11-19T10:34:52;3.97;;;1.47;;
34585;SDS011;20816;50.950;11.108;2023-11-19T10:37:31;2.37;;;1.10;;
34585;SDS011;20816;50.950;11.108;2023-11-19T10:39:59;2.80;;;0.93;;
34585;SDS011;20816;50.950;11.108;2023-11-19T10:42:26;6.07;;;1.37;;
34585;SDS011;20816;50.950;11.108;2023-11-19T10:44:53;7.57;;;0.97;;
34585;SDS011;20816;50.950;11.108;2023-11-19T10:47:20;11.60;;;5.00;;
34585;SDS011;20816;50.950;11.108;2023-11-19T10:49:52;2.37;;;1.07;;
34585;SDS011;20816;50.950;11.108;2023-11-19T10:52:18;10.93;;;1.50;;
34585;SDS011;20816;50.950;11.108;2023-11-19T10:54:49;8.50;;;2.80;;
34585;SDS011;20816;50.950;11.108;2023-11-19T10:57:19;5.73;;;1.40;;
34585;SDS011;20816;50.950;11.108;2023-11-19T10:59:52;4.00;;;1.53;;
34585;SDS011;20816;50.950;11.108;2023-11-19T11:02:22;5.23;;;1.53;;
34585;SDS011;20816;50.950;11.108;2023-11-19T11:04:53;4.13;;;1.50;;
34585;SDS011;20816;50.950;11.108;2023-11-19T11:07:21;6.50;;;2.60;;
34585;SDS011;20816;50.950;11.108;2023-11-19T11:10:02;6.63;;;1.20;;
34585;SDS011;20816;50.950;11.108;2023-11-19T11:12:32;6.00;;;0.97;;
34585;SDS011;20816;50.950;11.108;2023-11-19T11:15:03;7.13;;;1.17;;
34585;SDS011;20816;50.950;11.108;2023-11-19T11:17:32;3.33;;;1.77;;
34585;SDS011;20816;50.950;11.108;2023-11-19T11:20:00;4.60;;;1.30;;
34585;SDS011;20816;50.950;11.108;2023-11-19T11:22:29;4.30;;;1.13;;
34585;SDS011;20816;50.950;11.108;2023-11-19T11:27:54;2.07;;;0.87;;
34585;SDS011;20816;50.950;11.108;2023-11-19T11:36:01;6.23;;;0.77;;
34585;SDS011;20816;50.950;11.108;2023-11-19T11:38:31;6.17;;;1.57;;
34585;SDS011;20816;50.950;11.108;2023-11-19T11:43:44;1.93;;;0.60;;
34585;SDS011;20816;50.950;11.108;2023-11-19T11:49:00;2.20;;;0.80;;
34585;SDS011;20816;50.950;11.108;2023-11-19T11:51:58;2.63;;;0.57;;
34585;SDS011;20816;50.950;11.108;2023-11-19T11:54:27;2.73;;;0.83;;
34585;SDS011;20816;50.950;11.108;2023-11-19T11:57:03;1.53;;;0.83;;
34585;SDS011;20816;50.950;11.108;2023-11-19T12:02:08;2.27;;;0.97;;
34585;SDS011;20816;50.950;11.108;2023-11-19T12:04:36;6.17;;;1.77;;
34585;SDS011;20816;50.950;11.108;2023-11-19T12:07:04;5.00;;;0.70;;
34585;SDS011;20816;50.950;11.108;2023-11-19T12:09:39;6.07;;;1.40;;
34585;SDS011;20816;50.950;11.108;2023-11-19T12:20:07;2.93;;;1.23;;
34585;SDS011;20816;50.950;11.108;2023-11-19T12:22:38;5.15;;;1.27;;
34585;SDS011;20816;50.950;11.108;2023-11-19T12:25:07;2.30;;;1.15;;
34585;SDS011;20816;50.950;11.108;2023-11-19T12:27:36;2.90;;;1.17;;
34585;SDS011;20816;50.950;11.108;2023-11-19T12:30:05;4.68;;;0.93;;
34585;SDS011;20816;50.950;11.108;2023-11-19T12:32:39;7.40;;;0.95;;
34585;SDS011;20816;50.950;11.108;2023-11-19T12:35:11;4.32;;;1.25;;
34585;SDS011;20816;50.950;11.108;2023-11-19T12:37:39;3.42;;;1.00;;
34585;SDS011;20816;50.950;11.108;2023-11-19T12:40:16;10.00;;;2.47;;
34585;SDS011;20816;50.950;11.108;2023-11-19T12:42:46;4.85;;;0.88;;
34585;SDS011;20816;50.950;11.108;2023-11-19T12:45:17;5.47;;;1.05;;
34585;SDS011;20816;50.950;11.108;2023-11-19T12:47:45;3.67;;;0.75;;
34585;SDS011;20816;50.950;11.108;2023-11-19T12:50:16;4.95;;;0.95;;
34585;SDS011;20816;50.950;11.108;2023-11-19T12:52:55;3.75;;;0.85;;
34585;SDS011;20816;50.950;11.108;2023-11-19T12:55:24;6.38;;;1.38;;
34585;SDS011;20816;50.950;11.108;2023-11-19T12:57:56;2.17;;;1.15;;
34585;SDS011;20816;50.950;11.108;2023-11-19T13:00:25;6.55;;;1.63;;
34585;SDS011;20816;50.950;11.108;2023-11-19T13:02:54;6.60;;;1.45;;
34585;SDS011;20816;50.950;11.108;2023-11-19T13:05:24;3.42;;;0.73;;
34585;SDS011;20816;50.950;11.108;2023-11-19T13:08:09;7.05;;;2.83;;
34585;SDS011;20816;50.950;11.108;2023-11-19T13:13:14;5.87;;;1.10;;
34585;SDS011;20816;50.950;11.108;2023-11-19T13:15:42;7.03;;;1.57;;
34585;SDS011;20816;50.950;11.108;2023-11-19T13:18:11;2.55;;;1.05;;
34585;SDS011;20816;50.950;11.108;2023-11-19T13:20:39;4.05;;;1.00;;
34585;SDS011;20816;50.950;11.108;2023-11-19T13:23:06;10.95;;;1.75;;
34585;SDS011;20816;50.950;11.108;2023-11-19T13:25:33;7.75;;;1.65;;
34585;SDS011;20816;50.950;11.108;2023-11-19T13:28:00;8.25;;;1.30;;
34585;SDS011;20816;50.950;11.108;2023-11-19T13:30:27;6.80;;;1.13;;
34585;SDS011;20816;50.950;11.108;2023-11-19T13:32:54;3.72;;;1.13;;
34585;SDS011;20816;50.950;11.108;2023-11-19T13:35:23;3.07;;;0.80;;
34585;SDS011;20816;50.950;11.108;2023-11-19T13:37:50;3.33;;;1.33;;
34585;SDS011;20816;50.950;11.108;2023-11-19T13:40:18;4.50;;;0.70;;
34585;SDS011;20816;50.950;11.108;2023-11-19T13:42:46;4.93;;;1.53;;
34585;SDS011;20816;50.950;11.108;2023-11-19T13:45:13;17.38;;;2.33;;
34585;SDS011;20816;50.950;11.108;2023-11-19T13:47:45;6.90;;;1.15;;
34585;SDS011;20816;50.950;11.108;2023-11-19T13:50:13;9.30;;;1.53;;
34585;SDS011;20816;50.950;11.108;2023-11-19T13:52:42;5.70;;;1.03;;
34585;SDS011;20816;50.950;11.108;2023-11-19T13:55:11;8.97;;;1.43;;
34585;SDS011;20816;50.950;11.108;2023-11-19T13:57:39;3.20;;;1.45;;
34585;SDS011;20816;50.950;11.108;2023-11-19T14:00:07;3.67;;;1.60;;
34585;SDS011;20816;50.950;11.108;2023-11-19T14:02:50;8.07;;;1.15;;
34585;SDS011;20816;50.950;11.108;2023-11-19T14:05:18;9.30;;;1.93;;
34585;SDS011;20816;50.950;11.108;2023-11-19T14:08:03;4.45;;;0.90;;
34585;SDS011;20816;50.950;11.108;2023-11-19T14:10:50;7.90;;;1.13;;
34585;SDS011;20816;50.950;11.108;2023-11-19T14:13:17;8.07;;;1.70;;
34585;SDS011;20816;50.950;11.108;2023-11-19T14:15:44;4.67;;;1.60;;
34585;SDS011;20816;50.950;11.108;2023-11-19T14:18:14;5.47;;;1.33;;
34585;SDS011;20816;50.950;11.108;2023-11-19T14:20:41;7.60;;;1.70;;
34585;SDS011;20816;50.950;11.108;2023-11-19T14:23:07;2.17;;;0.80;;
34585;SDS011;20816;50.950;11.108;2023-11-19T14:25:35;18.37;;;1.67;;
34585;SDS011;20816;50.950;11.108;2023-11-19T14:28:02;9.17;;;1.80;;
34585;SDS011;20816;50.950;11.108;2023-11-19T14:30:31;10.27;;;1.27;;
34585;SDS011;20816;50.950;11.108;2023-11-19T14:32:58;10.77;;;1.42;;
34585;SDS011;20816;50.950;11.108;2023-11-19T14:35:25;6.60;;;1.20;;
34585;SDS011;20816;50.950;11.108;2023-11-19T14:37:52;5.35;;;1.55;;
34585;SDS011;20816;50.950;11.108;2023-11-19T14:40:19;3.00;;;1.27;;
34585;SDS011;20816;50.950;11.108;2023-11-19T14:42:46;9.37;;;2.10;;
34585;SDS011;20816;50.950;11.108;2023-11-19T14:45:13;14.97;;;2.50;;
34585;SDS011;20816;50.950;11.108;2023-11-19T14:47:40;5.90;;;1.90;;
34585;SDS011;20816;50.950;11.108;2023-11-19T14:50:06;5.23;;;1.67;;
34585;SDS011;20816;50.950;11.108;2023-11-19T14:52:35;2.17;;;1.40;;
34585;SDS011;20816;50.950;11.108;2023-11-19T14:55:03;5.87;;;1.80;;
34585;SDS011;20816;50.950;11.108;2023-11-19T14:57:30;1.70;;;1.43;;
34585;SDS011;20816;50.950;11.108;2023-11-19T14:59:58;8.10;;;2.50;;
34585;SDS011;20816;50.950;11.108;2023-11-19T15:02:25;9.07;;;1.90;;
34585;SDS011;20816;50.950;11.108;2023-11-19T15:04:51;1.00;;;0.60;;
34585;SDS011;20816;50.950;11.108;2023-11-19T15:07:18;5.37;;;2.47;;
34585;SDS011;20816;50.950;11.108;2023-11-19T15:09:45;6.23;;;1.77;;